aviador You're here:

LZZI Decoded Metar

ZILINA in SLOVAKIA
Report Time2018-02-20 03:00:00
UTC Time2018-02-20 03:27:41
Flight Rules mvfr MVFR
Wind090° at 05 kt
W.Decomp.*RWY 06: 4.5 kt HW 2.3 kt RCW
W.Rank090° ranks 8
Current wind is above 090° avg. (3.5)
Visibility6000 m
Phenomena:N/A
Clouds:N/A
Expected CloudBase > 800 ft AGL from Temp-Dew spread
CeilingNone
Temp-5°C (ISA -18)
Dew Point-7°C (86% RH)
AAT-9.6°C
QNH1017 hPa
Density Alt-1,280 ft
Elevation1,020 ft
Report Wrong Elevation
Raw Report
LZZI 200300Z 09005KT 6000 NSC M05/M07 Q1017=

Extra information for LZZI:More info

Metar Taf Metar & Taf Last 4 Metars F.Rules Stats Wind Profile Meteogram Temp Stats Airport Information Weather charts Add Link Nearby VenuesMetar ALERT Operation Metar Decoded Social comments